Time;durP1;ratioP1;P1;durP2;ratioP2;P2;SDS_P1;SDS_P2;PMS_P1;PMS_P2;Temp;Humidity;BMP_temperature;BMP_pressure;BME280_temperature;BME280_humidity;BME280_pressure;Samples;Min_cycle;Max_cycle;Signal;HPM_P1;HPM_P2
2023/06/22 04:22:33;;;;;;;7.97;5.13;;;;;;;19.48;100.00;100126.13;5089578;28;20397;-66
2023/06/22 04:24:58;;;;;;;9.82;5.50;;;;;;;19.50;100.00;100118.66;5089468;28;20040;-66
2023/06/22 04:27:23;;;;;;;10.98;5.00;;;;;;;19.54;100.00;100127.09;5089332;28;20501;-67
2023/06/22 04:29:49;;;;;;;9.95;5.43;;;;;;;19.59;100.00;100126.41;5089107;28;20036;-66
2023/06/22 04:32:15;;;;;;;9.13;5.03;;;;;;;19.65;100.00;100130.88;5089661;28;20453;-67
2023/06/22 04:34:41;;;;;;;8.57;5.50;;;;;;;19.68;100.00;100133.09;5089309;28;20044;-67
2023/06/22 04:37:06;;;;;;;7.35;5.18;;;;;;;19.72;100.00;100124.31;5089254;28;20043;-67
2023/06/22 04:39:31;;;;;;;7.55;4.50;;;;;;;19.78;100.00;100120.66;5088917;28;20076;-68
2023/06/22 04:42:00;;;;;;;8.90;4.65;;;;;;;19.81;100.00;100121.22;5089200;28;20042;-65
2023/06/22 04:44:26;;;;;;;11.43;5.70;;;;;;;19.84;100.00;100113.47;5089137;28;20044;-65
2023/06/22 04:47:03;;;;;;;9.93;5.85;;;;;;;19.86;100.00;100105.13;5088996;28;20032;-65
2023/06/22 04:49:32;;;;;;;8.15;5.18;;;;;;;19.95;100.00;100111.81;5088776;28;20481;-65
2023/06/22 04:51:59;;;;;;;11.63;6.20;;;;;;;20.01;100.00;100110.84;5089097;28;20531;-65
2023/06/22 04:54:24;;;;;;;9.20;5.47;;;;;;;20.06;100.00;100110.97;5088973;28;20388;-65
2023/06/22 04:56:56;;;;;;;8.75;4.70;;;;;;;20.15;100.00;100106.00;5088875;28;20040;-65
2023/06/22 04:59:30;;;;;;;8.07;4.63;;;;;;;20.16;100.00;100105.78;5088670;28;20438;-65
2023/06/22 05:02:02;;;;;;;7.00;5.13;;;;;;;20.22;100.00;100104.00;5088848;28;20071;-65
2023/06/22 05:04:31;;;;;;;8.23;5.18;;;;;;;20.24;100.00;100091.06;5088829;28;20051;-66
2023/06/22 05:06:57;;;;;;;7.50;4.70;;;;;;;20.27;100.00;100090.56;5088689;28;20067;-66
2023/06/22 05:09:22;;;;;;;7.65;4.70;;;;;;;20.32;100.00;100091.50;5088327;28;20067;-67
2023/06/22 05:11:47;;;;;;;8.23;4.80;;;;;;;20.43;100.00;100099.81;5088588;28;20489;-66
2023/06/22 05:14:13;;;;;;;8.10;4.55;;;;;;;20.49;100.00;100096.16;5088615;28;20040;-67
2023/06/22 05:16:41;;;;;;;7.75;5.00;;;;;;;20.48;100.00;100097.25;5088518;28;20036;-67
2023/06/22 05:19:07;;;;;;;7.00;4.68;;;;;;;20.48;100.00;100089.13;5088153;28;20040;-59
2023/06/22 05:21:32;;;;;;;7.63;5.35;;;;;;;20.54;100.00;100082.75;5088147;28;20178;-56
2023/06/22 05:24:00;;;;;;;8.40;4.32;;;;;;;20.54;100.00;100080.03;5088254;28;20066;-54
2023/06/22 05:26:30;;;;;;;8.23;4.90;;;;;;;20.60;100.00;100084.44;5087974;28;20032;-53
2023/06/22 05:28:56;;;;;;;8.73;4.95;;;;;;;20.65;100.00;100076.44;5086150;28;20055;-57
2023/06/22 05:31:21;;;;;;;11.23;5.32;;;;;;;20.64;100.00;100084.81;5088047;28;20469;-57
2023/06/22 05:33:48;;;;;;;10.85;4.70;;;;;;;20.64;100.00;100072.09;5057258;28;20127;-56
2023/06/22 05:36:14;;;;;;;8.18;4.70;;;;;;;20.69;100.00;100068.66;5074498;28;20047;-59
2023/06/22 05:38:40;;;;;;;10.95;5.63;;;;;;;20.79;100.00;100072.34;5074411;28;20420;-58
2023/06/22 05:41:06;;;;;;;8.52;4.88;;;;;;;20.87;100.00;100079.28;5074433;28;20028;-58
2023/06/22 05:43:32;;;;;;;7.45;4.85;;;;;;;20.86;100.00;100083.03;5074510;28;20395;-57
2023/06/22 05:45:58;;;;;;;6.47;4.50;;;;;;;20.92;100.00;100078.53;5075312;28;20032;-56
2023/06/22 05:48:23;;;;;;;7.35;4.57;;;;;;;20.96;100.00;100083.22;5075869;28;20060;-57
2023/06/22 05:50:49;;;;;;;7.32;4.75;;;;;;;20.95;100.00;100086.16;5075112;28;20105;-55
2023/06/22 05:53:15;;;;;;;7.28;4.70;;;;;;;21.00;100.00;100089.78;5075177;28;20036;-57
2023/06/22 05:55:40;;;;;;;7.22;4.53;;;;;;;21.06;100.00;100085.25;5075862;28;20042;-58
2023/06/22 05:58:06;;;;;;;6.93;4.60;;;;;;;21.10;100.00;100079.09;5074760;28;20378;-56
2023/06/22 06:00:31;;;;;;;6.95;4.55;;;;;;;21.20;100.00;100086.59;5099351;28;20130;-56
2023/06/22 06:03:03;;;;;;;10.50;5.15;;;;;;;21.25;100.00;100078.50;5096374;28;20089;-59
2023/06/22 06:05:34;;;;;;;9.23;4.85;;;;;;;21.23;100.00;100074.41;5084340;28;20086;-57
2023/06/22 06:08:01;;;;;;;7.38;4.88;;;;;;;21.26;100.00;100082.06;5075225;28;20043;-58
2023/06/22 06:10:27;;;;;;;10.05;5.32;;;;;;;21.26;100.00;100085.59;5073370;28;20088;-59
2023/06/22 06:12:53;;;;;;;6.60;4.28;;;;;;;21.35;100.00;100086.84;5075084;28;20071;-57
2023/06/22 06:15:18;;;;;;;6.72;4.20;;;;;;;21.37;100.00;100087.41;5073762;28;20060;-59
2023/06/22 06:17:47;;;;;;;7.93;4.63;;;;;;;21.33;100.00;100080.84;5070661;28;20229;-58
2023/06/22 06:20:13;;;;;;;7.72;4.70;;;;;;;21.43;100.00;100084.78;5062555;28;20036;-57
2023/06/22 06:22:39;;;;;;;7.30;4.75;;;;;;;21.46;100.00;100065.34;5053713;28;20094;-59
2023/06/22 06:25:05;;;;;;;5.63;4.47;;;;;;;21.53;100.00;100061.38;5053700;28;20044;-58
2023/06/22 06:27:30;;;;;;;9.65;4.88;;;;;;;21.57;100.00;100059.78;5053503;28;20041;-59
2023/06/22 06:29:56;;;;;;;5.72;4.18;;;;;;;21.71;100.00;100060.22;5053268;28;20036;-59
2023/06/22 06:32:21;;;;;;;7.13;5.03;;;;;;;21.76;100.00;100056.78;5053261;28;20052;-54
2023/06/22 06:34:47;;;;;;;6.63;4.88;;;;;;;21.83;100.00;100047.38;5053267;28;20036;-60
2023/06/22 06:37:16;;;;;;;7.68;4.55;;;;;;;21.88;100.00;100046.63;5053102;28;20043;-59
2023/06/22 06:39:42;;;;;;;6.33;4.67;;;;;;;21.98;100.00;100046.78;5053059;28;20037;-59
2023/06/22 06:42:07;;;;;;;6.80;4.82;;;;;;;22.08;100.00;100054.19;5053218;28;20036;-60
2023/06/22 06:44:34;;;;;;;7.53;4.00;;;;;;;22.20;100.00;100055.72;5034381;28;20043;-58
2023/06/22 06:47:00;;;;;;;8.77;5.53;;;;;;;22.42;100.00;100044.00;5053233;28;20041;-59
2023/06/22 06:49:25;;;;;;;5.95;4.13;;;;;;;22.50;100.00;100046.28;5052802;28;20037;-58
2023/06/22 06:51:51;;;;;;;6.03;4.22;;;;;;;22.64;100.00;100046.69;5053147;28;20041;-57
2023/06/22 06:54:16;;;;;;;8.00;4.57;;;;;;;22.74;100.00;100044.03;5053069;28;20041;-59
2023/06/22 06:56:44;;;;;;;7.68;4.80;;;;;;;22.79;100.00;100046.81;5052953;28;20075;-58
2023/06/22 06:59:10;;;;;;;6.90;4.45;;;;;;;22.91;99.12;100047.50;5052669;28;20048;-55
2023/06/22 07:01:35;;;;;;;5.85;4.20;;;;;;;23.01;97.25;100035.88;5052790;28;20033;-59
2023/06/22 07:04:01;;;;;;;8.02;4.13;;;;;;;23.10;96.71;100023.47;5052781;28;20388;-58
2023/06/22 07:06:28;;;;;;;7.78;4.38;;;;;;;23.25;95.68;100018.13;5052589;28;20091;-56
2023/06/22 07:08:55;;;;;;;9.15;4.03;;;;;;;23.28;95.09;100030.38;5052469;28;20041;-56
2023/06/22 07:11:20;;;;;;;6.32;4.72;;;;;;;23.37;94.57;100025.28;5052827;28;20022;-58
2023/06/22 07:13:46;;;;;;;6.90;4.28;;;;;;;23.52;93.32;100012.56;5052788;28;20037;-56
2023/06/22 07:16:11;;;;;;;5.93;4.00;;;;;;;23.55;92.53;100012.06;5052668;28;20048;-56
2023/06/22 07:18:36;;;;;;;5.50;3.30;;;;;;;23.64;91.45;100015.09;5052315;28;20079;-57
2023/06/22 07:21:06;;;;;;;6.32;4.30;;;;;;;23.69;91.70;100023.28;5052416;28;20036;-57
2023/06/22 07:23:31;;;;;;;7.13;4.15;;;;;;;23.88;91.04;100020.94;5052656;28;20106;-59
2023/06/22 07:25:57;;;;;;;6.85;3.80;;;;;;;23.93;90.37;100018.25;5052417;28;20037;-58
2023/06/22 07:28:22;;;;;;;7.90;4.25;;;;;;;24.02;90.13;100030.22;5052183;28;20044;-57
2023/06/22 07:30:47;;;;;;;9.55;4.50;;;;;;;24.16;87.25;100014.22;5052461;28;20044;-58
2023/06/22 07:33:13;;;;;;;9.55;4.10;;;;;;;24.36;86.44;100014.28;5052334;28;20108;-58
2023/06/22 07:35:38;;;;;;;5.85;4.18;;;;;;;24.47;85.02;100000.69;5052147;28;20045;-57
2023/06/22 07:38:04;;;;;;;7.30;3.88;;;;;;;24.60;84.03;100000.16;5052260;28;20106;-58
2023/06/22 07:40:29;;;;;;;5.95;3.40;;;;;;;24.74;84.69;100009.41;5064238;28;20052;-58
2023/06/22 07:42:55;;;;;;;5.57;3.47;;;;;;;24.73;83.32;99999.63;5072221;28;20119;-57
2023/06/22 07:45:20;;;;;;;6.32;3.45;;;;;;;24.80;83.06;100013.78;5071933;28;20094;-56
2023/06/22 07:47:45;;;;;;;4.63;3.15;;;;;;;24.92;82.98;100012.69;5071971;28;20036;-56
2023/06/22 07:50:11;;;;;;;5.60;3.15;;;;;;;24.89;82.02;100008.59;5071671;28;20047;-58
2023/06/22 07:52:37;;;;;;;5.72;3.47;;;;;;;25.05;80.96;100017.63;5072053;28;20447;-56
2023/06/22 07:55:02;;;;;;;6.03;3.70;;;;;;;25.14;81.40;100011.31;5071421;28;20043;-58
2023/06/22 07:57:33;;;;;;;6.60;3.20;;;;;;;25.34;81.42;100013.19;5051263;28;20040;-57
2023/06/22 08:00:00;;;;;;;6.10;3.28;;;;;;;25.44;80.12;100020.53;5018312;28;20041;-57
2023/06/22 08:02:26;;;;;;;4.18;3.17;;;;;;;25.74;79.11;100007.91;5050522;28;20029;-57
2023/06/22 08:04:51;;;;;;;4.50;3.03;;;;;;;25.80;76.52;100006.78;5050538;28;20075;-59
2023/06/22 08:07:19;;;;;;;7.40;3.75;;;;;;;26.00;75.70;100027.69;5051579;28;20064;-58
2023/06/22 08:09:49;;;;;;;5.50;3.20;;;;;;;26.14;74.51;100028.72;5049671;28;20045;-65
2023/06/22 08:12:15;;;;;;;5.30;3.60;;;;;;;26.09;73.88;100015.94;5051671;28;20394;-63
2023/06/22 08:14:43;;;;;;;5.20;3.13;;;;;;;26.12;75.40;100030.91;5051858;28;20024;-64
2023/06/22 08:17:08;;;;;;;4.65;3.22;;;;;;;26.20;75.25;100028.41;5051973;28;20097;-65
2023/06/22 08:19:33;;;;;;;4.18;3.20;;;;;;;26.34;74.01;100035.97;5033977;28;20045;-66
2023/06/22 08:21:59;;;;;;;3.97;2.97;;;;;;;26.46;75.28;100045.47;5051737;28;20039;-64
2023/06/22 08:24:25;;;;;;;6.22;3.50;;;;;;;26.54;75.21;100048.69;5051723;28;20391;-65
2023/06/22 08:26:51;;;;;;;5.22;2.90;;;;;;;26.64;73.70;100060.38;5050421;28;20033;-66
2023/06/22 08:29:17;;;;;;;4.68;3.10;;;;;;;26.68;73.65;100077.84;5050767;28;20502;-65
2023/06/22 08:31:42;;;;;;;5.10;3.05;;;;;;;26.55;73.30;100081.22;5051671;28;20227;-66
2023/06/22 08:34:07;;;;;;;4.10;2.80;;;;;;;26.60;73.52;100078.44;5016850;28;20040;-65
2023/06/22 08:36:35;;;;;;;4.50;3.20;;;;;;;26.83;72.68;100081.56;5032207;28;20040;-67
2023/06/22 08:39:03;;;;;;;;;;;;;;;26.97;72.74;100074.34;5051817;28;20549;-66
2023/06/22 08:41:29;;;;;;;4.50;3.35;;;;;;;27.12;70.44;100059.75;5051637;28;19917;-67
2023/06/22 08:43:54;;;;;;;5.63;3.33;;;;;;;27.26;69.77;100028.75;5051587;28;20048;-66
2023/06/22 08:46:23;;;;;;;5.60;3.28;;;;;;;27.43;69.42;100022.00;5051433;28;20048;-66
2023/06/22 08:48:49;;;;;;;4.22;2.97;;;;;;;27.55;69.86;100006.81;5051159;28;20087;-67
2023/06/22 08:51:14;;;;;;;5.97;3.45;;;;;;;27.61;69.37;100004.81;5051519;28;20076;-66
2023/06/22 08:53:39;;;;;;;4.05;3.10;;;;;;;27.68;67.24;99996.25;5051448;28;20124;-65
2023/06/22 08:56:05;;;;;;;5.68;2.92;;;;;;;27.84;67.70;99994.97;5071337;28;20119;-65
2023/06/22 08:58:30;;;;;;;4.88;3.10;;;;;;;27.72;67.57;100000.09;5071019;28;20052;-65
2023/06/22 09:00:55;;;;;;;4.75;3.22;;;;;;;27.69;67.28;100006.13;5071440;28;20039;-65
2023/06/22 09:03:21;;;;;;;4.30;2.83;;;;;;;27.77;66.16;100009.03;5071381;28;20127;-66
2023/06/22 09:05:46;;;;;;;4.82;3.03;;;;;;;27.73;66.59;100020.88;5071375;28;20036;-65
2023/06/22 09:08:12;;;;;;;4.72;3.03;;;;;;;27.88;66.03;100006.97;5073199;28;20386;-66
2023/06/22 09:10:37;;;;;;;5.05;2.83;;;;;;;27.94;65.51;100018.69;5074849;28;20055;-66
2023/06/22 09:13:02;;;;;;;5.53;3.35;;;;;;;28.11;66.48;100017.06;5075008;28;20028;-66
2023/06/22 09:15:28;;;;;;;3.75;2.95;;;;;;;28.14;65.87;100010.19;5074929;28;20470;-66
2023/06/22 09:17:54;;;;;;;4.70;3.05;;;;;;;28.25;63.36;100017.16;5074899;28;20052;-66
2023/06/22 09:20:20;;;;;;;7.75;3.00;;;;;;;28.46;61.68;100011.41;5074310;28;20050;-66
2023/06/22 09:22:46;;;;;;;3.95;2.85;;;;;;;28.61;63.50;100003.75;5074943;28;20044;-67
2023/06/22 09:25:12;;;;;;;5.72;3.75;;;;;;;28.53;61.70;100007.16;5074879;28;20090;-66
2023/06/22 09:27:38;;;;;;;6.28;3.33;;;;;;;28.61;60.54;100008.41;5074806;28;20036;-65
2023/06/22 09:30:04;;;;;;;5.15;3.13;;;;;;;28.81;60.54;100004.50;5074336;28;20032;-65
2023/06/22 09:32:29;;;;;;;5.80;3.47;;;;;;;29.09;62.40;99999.97;5074920;28;20045;-66
2023/06/22 09:34:54;;;;;;;4.20;2.65;;;;;;;29.15;58.57;99990.53;5074623;28;20520;-66
2023/06/22 09:37:20;;;;;;;5.40;3.53;;;;;;;29.51;57.85;99987.09;5074559;28;20119;-66
2023/06/22 09:39:45;;;;;;;4.28;3.10;;;;;;;29.65;57.83;99980.50;5074242;28;20044;-65
2023/06/22 09:42:11;;;;;;;4.53;3.08;;;;;;;29.56;56.83;99967.81;5074583;28;20040;-66
2023/06/22 09:44:36;;;;;;;3.50;2.67;;;;;;;29.59;57.44;99951.53;5074515;28;20068;-67
2023/06/22 09:47:02;;;;;;;6.35;3.25;;;;;;;29.71;58.07;99943.59;5074358;28;20493;-66
2023/06/22 09:49:27;;;;;;;5.13;2.70;;;;;;;29.71;57.69;99953.75;5074200;28;20041;-66
2023/06/22 09:51:53;;;;;;;3.78;2.83;;;;;;;29.40;57.99;99943.38;5074432;28;20052;-67
2023/06/22 09:54:18;;;;;;;6.07;2.97;;;;;;;29.38;59.02;99934.66;5074456;28;20043;-66
2023/06/22 09:56:44;;;;;;;5.22;2.80;;;;;;;29.33;58.65;99926.53;5074355;28;20410;-66
2023/06/22 09:59:09;;;;;;;4.28;2.65;;;;;;;29.50;59.01;99912.19;5073981;28;20079;-66
2023/06/22 10:01:35;;;;;;;3.92;2.85;;;;;;;29.28;58.13;99925.81;5074448;28;20048;-65
2023/06/22 10:04:01;;;;;;;5.35;2.90;;;;;;;29.17;60.07;99930.72;5074385;28;20039;-66
2023/06/22 10:06:26;;;;;;;5.25;2.88;;;;;;;29.14;59.86;99923.06;5073999;28;20032;-65
2023/06/22 10:08:52;;;;;;;4.63;3.03;;;;;;;28.93;59.49;99928.94;5073969;28;20370;-65
2023/06/22 10:11:17;;;;;;;5.53;3.08;;;;;;;28.90;59.38;99936.94;5074132;28;20094;-66
2023/06/22 10:13:43;;;;;;;5.88;2.88;;;;;;;28.79;61.17;99943.72;5074008;28;20072;-66
2023/06/22 10:16:08;;;;;;;4.70;3.00;;;;;;;28.92;61.85;99937.47;5073896;28;20037;-65
2023/06/22 10:18:34;;;;;;;4.88;2.58;;;;;;;29.15;60.89;99943.91;5073613;28;20076;-66
2023/06/22 10:20:59;;;;;;;7.47;3.05;;;;;;;29.30;59.90;99935.38;5073818;28;20032;-66
2023/06/22 10:23:25;;;;;;;5.60;2.75;;;;;;;29.31;58.17;99931.50;5073909;28;20536;-65
2023/06/22 10:25:51;;;;;;;4.60;3.13;;;;;;;29.33;57.16;99928.47;5073651;28;20040;-66
2023/06/22 10:28:16;;;;;;;4.03;2.88;;;;;;;29.43;57.26;99925.53;5073433;28;20063;-64
2023/06/22 10:30:42;;;;;;;4.60;3.10;;;;;;;29.64;57.74;99925.91;5073456;28;20033;-67
2023/06/22 10:33:08;;;;;;;5.07;2.70;;;;;;;29.61;56.37;99921.88;5073615;28;20039;-66
2023/06/22 10:35:34;;;;;;;3.33;2.60;;;;;;;29.65;58.29;99924.81;5073522;28;20048;-66
2023/06/22 10:37:59;;;;;;;5.65;3.00;;;;;;;29.71;55.83;99926.31;5073651;28;20079;-66
2023/06/22 10:40:25;;;;;;;4.32;3.17;;;;;;;29.77;57.32;99919.59;5055459;28;20036;-65
2023/06/22 10:42:50;;;;;;;4.40;3.05;;;;;;;29.91;57.12;99928.59;5073319;28;20115;-67
2023/06/22 10:45:16;;;;;;;5.15;2.42;;;;;;;29.94;58.66;99919.75;5073352;28;20033;-66
2023/06/22 10:47:44;;;;;;;4.07;2.80;;;;;;;29.92;58.99;99916.50;5073365;28;20078;-66
2023/06/22 10:50:10;;;;;;;3.75;3.00;;;;;;;29.93;56.84;99909.91;5073013;28;20055;-66
2023/06/22 10:52:36;;;;;;;4.25;2.90;;;;;;;29.90;57.43;99906.97;5073120;28;20048;-66
2023/06/22 10:55:01;;;;;;;4.57;2.78;;;;;;;29.92;58.36;99905.50;5073385;28;20142;-67
2023/06/22 10:57:27;;;;;;;7.13;2.85;;;;;;;30.03;57.11;99905.28;5073102;28;20401;-66
2023/06/22 10:59:52;;;;;;;3.90;3.03;;;;;;;30.18;54.77;99910.44;5072899;28;20093;-66
2023/06/22 11:02:18;;;;;;;3.90;2.90;;;;;;;30.36;56.52;99920.44;5073163;28;20060;-66
2023/06/22 11:04:43;;;;;;;3.80;3.00;;;;;;;30.47;56.40;99912.75;5073011;28;20130;-65
2023/06/22 11:07:09;;;;;;;6.22;3.10;;;;;;;30.52;54.92;99910.69;5072915;28;20036;-67
2023/06/22 11:09:34;;;;;;;3.60;2.80;;;;;;;30.52;54.71;99907.94;5072626;28;20101;-66
2023/06/22 11:12:00;;;;;;;7.35;3.03;;;;;;;30.60;54.53;99911.88;5072794;28;20123;-66
2023/06/22 11:14:25;;;;;;;4.30;2.58;;;;;;;30.39;56.09;99910.75;5072989;28;20122;-65
2023/06/22 11:16:51;;;;;;;4.22;2.60;;;;;;;30.58;56.31;99910.53;5072699;28;20040;-65
2023/06/22 11:19:17;;;;;;;3.27;2.60;;;;;;;30.66;54.84;99910.59;5072313;28;20557;-66
2023/06/22 11:21:42;;;;;;;4.60;3.15;;;;;;;30.48;54.19;99908.88;5072617;28;20033;-66
2023/06/22 11:24:08;;;;;;;3.92;2.90;;;;;;;30.85;54.65;99899.41;5072620;28;20036;-65
2023/06/22 11:26:33;;;;;;;4.32;2.80;;;;;;;30.90;54.41;99899.25;5072499;28;20067;-66
2023/06/22 11:28:59;;;;;;;6.72;3.10;;;;;;;31.05;54.06;99896.09;5072303;28;20059;-66
2023/06/22 11:31:25;;;;;;;5.90;3.33;;;;;;;30.82;53.60;99894.53;5071830;28;20037;-66
2023/06/22 11:33:50;;;;;;;4.00;2.93;;;;;;;31.17;52.60;99894.66;5072435;28;20030;-65
2023/06/22 11:36:16;;;;;;;3.40;2.72;;;;;;;30.98;52.49;99893.00;5072422;28;20097;-66
2023/06/22 11:38:42;;;;;;;3.13;2.57;;;;;;;30.95;54.04;99893.63;5072199;28;20551;-66
2023/06/22 11:41:09;;;;;;;5.77;3.13;;;;;;;30.81;53.71;99890.16;5072319;28;20176;-66
2023/06/22 11:43:35;;;;;;;5.50;2.75;;;;;;;30.82;53.66;99888.22;5072348;28;20293;-65
2023/06/22 11:46:03;;;;;;;4.38;2.88;;;;;;;30.79;53.58;99889.69;5064726;28;20103;-62
2023/06/22 11:48:28;;;;;;;4.60;3.15;;;;;;;30.64;53.35;99898.28;5062275;28;20041;-64
2023/06/22 11:50:54;;;;;;;6.05;3.00;;;;;;;30.53;55.61;99904.06;5060666;28;20110;-64
2023/06/22 11:53:21;;;;;;;4.38;2.63;;;;;;;30.40;54.58;99915.94;5062641;28;20408;-65
2023/06/22 11:55:47;;;;;;;;;;;;;;;30.33;54.96;99910.06;5062974;28;20111;-64
2023/06/22 11:58:12;;;;;;;4.60;3.10;;;;;;;30.46;55.13;99911.94;5062958;28;19931;-64
2023/06/22 12:00:38;;;;;;;5.07;2.83;;;;;;;30.98;55.09;99914.19;5062175;28;20041;-61
2023/06/22 12:03:03;;;;;;;5.90;4.10;;;;;;;31.74;51.37;99905.66;5061476;28;20075;-64
2023/06/22 12:05:29;;;;;;;6.63;3.20;;;;;;;32.18;49.91;99920.28;5042927;28;20408;-64
2023/06/22 12:07:54;;;;;;;5.30;3.20;;;;;;;31.95;50.52;99917.72;5061388;28;20040;-64
2023/06/22 12:10:21;;;;;;;6.00;3.10;;;;;;;31.85;50.36;99912.50;5060160;28;20037;-61
2023/06/22 12:12:47;;;;;;;4.40;2.75;;;;;;;31.96;49.97;99910.25;5061055;28;20040;-65
2023/06/22 12:15:12;;;;;;;5.73;2.83;;;;;;;32.36;49.16;99908.16;5062510;28;20108;-64
2023/06/22 12:17:38;;;;;;;4.77;3.10;;;;;;;32.66;48.29;99906.28;5042832;28;20118;-65
2023/06/22 12:20:05;;;;;;;4.97;2.90;;;;;;;32.74;49.22;99904.66;5041145;28;20133;-63
2023/06/22 12:22:34;;;;;;;3.75;3.03;;;;;;;32.74;48.86;99908.22;5042341;28;20037;-63
2023/06/22 12:25:01;;;;;;;7.57;3.50;;;;;;;32.76;49.14;99910.66;5042838;28;20040;-59
2023/06/22 12:27:27;;;;;;;3.95;3.03;;;;;;;32.39;48.06;99913.78;5062034;28;20048;-60
2023/06/22 12:29:52;;;;;;;3.43;2.93;;;;;;;31.51;50.48;99908.56;5031698;28;20033;-62
2023/06/22 12:32:18;;;;;;;4.43;3.40;;;;;;;31.78;50.31;99910.25;5060898;28;20553;-61
2023/06/22 12:34:44;;;;;;;7.30;3.03;;;;;;;31.61;51.57;99916.50;5061936;28;20115;-57
2023/06/22 12:37:10;;;;;;;6.72;3.00;;;;;;;31.58;51.88;99928.16;5041710;28;20494;-62
2023/06/22 12:39:36;;;;;;;4.22;3.05;;;;;;;31.46;53.57;99930.72;5060162;28;20029;-61
2023/06/22 12:42:02;;;;;;;4.40;2.87;;;;;;;31.32;53.60;99921.78;5044943;28;20090;-63
2023/06/22 12:44:27;;;;;;;4.20;3.07;;;;;;;31.15;52.65;99918.94;5075537;28;20116;-57
2023/06/22 12:46:52;;;;;;;7.33;3.03;;;;;;;30.96;55.79;99922.72;5075058;28;20036;-62
2023/06/22 12:49:18;;;;;;;3.97;3.10;;;;;;;31.00;56.60;99918.22;5075278;28;20485;-61
2023/06/22 12:51:44;;;;;;;4.37;2.90;;;;;;;31.18;54.35;99915.56;5075474;28;20089;-57
2023/06/22 12:54:10;;;;;;;5.57;3.23;;;;;;;31.21;55.76;99915.72;5075341;28;20063;-62
2023/06/22 12:56:37;;;;;;;4.20;3.55;;;;;;;31.16;54.93;99915.03;5075419;28;20032;-62
2023/06/22 12:59:03;;;;;;;6.10;3.05;;;;;;;31.06;53.47;99908.72;5074936;28;20478;-63
2023/06/22 13:01:30;;;;;;;;;;;;;;;30.95;55.10;99923.88;5075601;28;20040;-62
2023/06/22 13:03:56;;;;;;;4.10;2.85;;;;;;;30.99;54.85;99918.56;5075029;28;20015;-64
2023/06/22 13:06:21;;;;;;;4.80;3.78;;;;;;;30.95;56.64;99912.88;5075096;28;20464;-63
2023/06/22 13:08:46;;;;;;;5.40;3.47;;;;;;;30.94;57.46;99903.00;5074715;28;20052;-63
2023/06/22 13:11:12;;;;;;;5.97;3.20;;;;;;;30.96;57.38;99899.94;5074925;28;20040;-63
2023/06/22 13:13:38;;;;;;;5.53;3.70;;;;;;;31.01;57.59;99895.09;5075073;28;20378;-62
2023/06/22 13:16:03;;;;;;;4.90;3.30;;;;;;;30.87;55.68;99886.16;5074972;28;20033;-62
2023/06/22 13:18:29;;;;;;;6.67;3.33;;;;;;;30.99;54.15;99888.31;5074721;28;20459;-64
2023/06/22 13:20:54;;;;;;;4.93;3.65;;;;;;;31.30;56.70;99891.03;5075029;28;20028;-64
2023/06/22 13:23:21;;;;;;;4.30;3.07;;;;;;;31.56;55.56;99891.06;5074823;28;20696;-64
2023/06/22 13:25:46;;;;;;;6.43;3.40;;;;;;;31.86;56.29;99892.09;5074839;28;20125;-63
2023/06/22 13:28:13;;;;;;;5.77;3.27;;;;;;;31.82;55.59;99894.72;5074765;28;20119;-63
2023/06/22 13:30:40;;;;;;;5.40;3.80;;;;;;;31.71;55.93;99882.34;5074766;28;20613;-62
2023/06/22 13:33:05;;;;;;;5.45;3.05;;;;;;;31.90;55.68;99886.78;5074778;28;20048;-63
2023/06/22 13:35:30;;;;;;;7.00;3.10;;;;;;;31.85;54.05;99877.53;5074753;28;20400;-61
2023/06/22 13:37:56;;;;;;;5.23;3.33;;;;;;;31.84;53.16;99880.59;5074519;28;20044;-62
2023/06/22 13:40:21;;;;;;;4.20;2.83;;;;;;;31.98;55.96;99869.44;5074398;28;20040;-63
2023/06/22 13:42:47;;;;;;;3.67;3.17;;;;;;;32.03;54.14;99853.56;5074661;28;20032;-63
2023/06/22 13:45:12;;;;;;;5.50;3.03;;;;;;;31.88;53.28;99860.34;5074527;28;20028;-64
2023/06/22 13:47:37;;;;;;;3.87;2.93;;;;;;;31.80;54.40;99860.34;5074506;28;20106;-63
2023/06/22 13:50:03;;;;;;;5.53;3.60;;;;;;;31.64;56.18;99864.69;5074150;28;20036;-63
2023/06/22 13:52:29;;;;;;;5.53;3.17;;;;;;;31.44;54.91;99853.19;5074428;28;20037;-62
2023/06/22 13:54:54;;;;;;;4.07;3.07;;;;;;;31.41;55.59;99851.06;5073883;28;20048;-63
2023/06/22 13:57:20;;;;;;;4.87;3.50;;;;;;;31.61;58.50;99855.13;5074240;28;20083;-63
2023/06/22 13:59:45;;;;;;;5.03;3.00;;;;;;;31.53;54.41;99867.75;5074142;28;20033;-61
2023/06/22 14:02:11;;;;;;;5.93;3.47;;;;;;;31.31;56.27;99884.41;5056307;28;20074;-60
2023/06/22 14:04:36;;;;;;;7.10;3.10;;;;;;;31.06;58.08;99883.97;5056297;28;20421;-64
2023/06/22 14:07:01;;;;;;;5.20;3.20;;;;;;;30.80;57.38;99863.81;5074037;28;20036;-60
2023/06/22 14:09:27;;;;;;;4.77;3.43;;;;;;;30.63;56.35;99858.19;5074112;28;20199;-61
2023/06/22 14:11:54;;;;;;;7.40;3.80;;;;;;;30.38;56.31;99863.22;5074001;28;20036;-63
2023/06/22 14:14:20;;;;;;;6.35;3.35;;;;;;;30.18;57.56;99861.00;5074043;28;20043;-62
2023/06/22 14:16:45;;;;;;;7.50;3.75;;;;;;;30.04;57.29;99866.53;5074006;28;20032;-60
2023/06/22 14:19:11;;;;;;;5.35;3.13;;;;;;;29.92;58.53;99889.03;5073764;28;20044;-61
2023/06/22 14:21:36;;;;;;;5.95;3.63;;;;;;;29.86;58.67;99894.97;5073700;28;20071;-63
2023/06/22 14:24:02;;;;;;;7.65;3.83;;;;;;;29.76;59.09;99882.28;5073914;28;20042;-61
2023/06/22 14:26:27;;;;;;;6.97;3.70;;;;;;;29.64;61.49;99871.03;5073730;28;20440;-60
2023/06/22 14:28:53;;;;;;;6.30;3.50;;;;;;;29.66;62.00;99857.81;5073642;28;20090;-64
2023/06/22 14:31:19;;;;;;;6.65;3.55;;;;;;;29.58;60.15;99847.59;5073649;28;20028;-63
2023/06/22 14:33:49;;;;;;;5.35;3.50;;;;;;;29.67;61.37;99837.50;5073664;28;20517;-60
2023/06/22 14:36:16;;;;;;;9.73;4.22;;;;;;;29.81;60.00;99843.75;5073433;28;20084;-63
2023/06/22 14:38:41;;;;;;;5.20;3.38;;;;;;;29.87;60.17;99838.97;5073278;28;20449;-62
2023/06/22 14:41:06;;;;;;;4.65;3.42;;;;;;;29.92;59.42;99836.88;5073392;28;20112;-61
2023/06/22 14:43:32;;;;;;;4.18;3.17;;;;;;;30.03;58.69;99820.16;5071285;28;20064;-63
2023/06/22 14:45:57;;;;;;;4.80;3.47;;;;;;;30.11;58.19;99803.78;5073239;28;20032;-62
2023/06/22 14:48:23;;;;;;;5.35;3.78;;;;;;;30.24;58.16;99788.34;5073031;28;20482;-60
2023/06/22 14:50:48;;;;;;;5.32;3.60;;;;;;;30.42;57.55;99787.31;5073054;28;20304;-60
2023/06/22 14:53:14;;;;;;;6.80;4.68;;;;;;;30.47;58.19;99778.94;5073034;28;20551;-61
2023/06/22 14:55:40;;;;;;;5.80;3.55;;;;;;;30.44;54.21;99778.75;5073101;28;20072;-51
2023/06/22 14:58:05;;;;;;;4.90;3.72;;;;;;;30.32;54.35;99760.13;5073041;28;20043;-52
2023/06/22 15:00:31;;;;;;;5.70;3.78;;;;;;;30.38;54.99;99767.06;5072765;28;20520;-53
2023/06/22 15:02:57;;;;;;;3.08;2.78;;;;;;;30.37;57.65;99757.22;5069848;28;20413;-51
2023/06/22 15:05:24;;;;;;;4.47;3.17;;;;;;;30.42;53.44;99754.34;5071953;28;20501;-60
2023/06/22 15:07:49;;;;;;;6.47;3.45;;;;;;;30.57;53.84;99755.84;5072856;28;20043;-60
2023/06/22 15:10:15;;;;;;;3.78;2.97;;;;;;;30.54;53.58;99748.25;5054700;28;20044;-60
2023/06/22 15:12:40;;;;;;;8.93;3.47;;;;;;;30.67;55.57;99736.34;5072817;28;20409;-63
2023/06/22 15:15:06;;;;;;;5.95;3.50;;;;;;;30.95;54.06;99750.63;5072708;28;20036;-63
2023/06/22 15:17:32;;;;;;;4.65;3.13;;;;;;;30.96;51.73;99748.69;5072645;28;20044;-62
2023/06/22 15:19:58;;;;;;;4.57;3.00;;;;;;;30.93;52.27;99741.91;5072330;28;20040;-61
2023/06/22 15:22:24;;;;;;;5.60;2.97;;;;;;;31.06;54.04;99740.16;5072504;28;20537;-62
2023/06/22 15:24:49;;;;;;;5.30;3.00;;;;;;;31.26;53.77;99749.75;5072480;28;20158;-60
2023/06/22 15:27:14;;;;;;;5.65;3.38;;;;;;;31.13;52.17;99762.47;5072408;28;20412;-60
2023/06/22 15:29:40;;;;;;;4.87;3.27;;;;;;;31.10;53.16;99767.81;5072257;28;20423;-63
2023/06/22 15:32:08;;;;;;;6.20;3.78;;;;;;;31.16;53.99;99778.34;5072498;28;20052;-61
2023/06/22 15:34:34;;;;;;;5.65;3.20;;;;;;;31.12;52.92;99771.88;5072390;28;20036;-60
2023/06/22 15:36:59;;;;;;;4.97;3.38;;;;;;;31.21;54.02;99772.69;5072391;28;20386;-60
2023/06/22 15:39:26;;;;;;;4.40;3.30;;;;;;;31.26;52.85;99752.50;5054235;28;20071;-60
2023/06/22 15:41:55;;;;;;;3.85;2.97;;;;;;;31.26;52.19;99766.25;5072444;28;20029;-60
2023/06/22 15:44:21;;;;;;;6.70;3.78;;;;;;;31.18;51.98;99772.53;5072316;28;20574;-59